Time;durP1;ratioP1;P1;durP2;ratioP2;P2;SDS_P1;SDS_P2;PMS_P1;PMS_P2;Temp;Humidity;BMP_temperature;BMP_pressure;BME280_temperature;BME280_humidity;BME280_pressure;Samples;Min_cycle;Max_cycle;Signal;HPM_P1;HPM_P2
2021/07/24 00:00:03;;;;;;;16.23;15.40;;;18.60;99.90;;;;;;5085759;28;20449;-68
2021/07/24 00:02:29;;;;;;;16.30;15.50;;;18.60;99.90;;;;;;5083137;28;20443;-69
2021/07/24 00:04:56;;;;;;;16.13;15.13;;;18.50;99.90;;;;;;5082131;28;20443;-69
2021/07/24 00:07:23;;;;;;;16.10;15.30;;;18.50;99.90;;;;;;5084523;28;20460;-68
2021/07/24 00:09:49;;;;;;;17.90;16.87;;;18.40;99.90;;;;;;5085604;28;20454;-68
2021/07/24 00:12:17;;;;;;;16.27;15.37;;;18.40;99.90;;;;;;5083495;28;20457;-68
2021/07/24 00:14:44;;;;;;;16.53;15.27;;;18.40;99.90;;;;;;5085417;28;20478;-69
2021/07/24 00:17:11;;;;;;;15.97;14.97;;;18.40;99.90;;;;;;5084010;28;21019;-69
2021/07/24 00:19:37;;;;;;;17.60;16.60;;;18.30;99.90;;;;;;5085204;28;20445;-68
2021/07/24 00:22:04;;;;;;;17.63;16.43;;;18.30;99.90;;;;;;5084641;28;20446;-68
2021/07/24 00:24:31;;;;;;;16.80;15.90;;;18.20;99.90;;;;;;5074537;28;20812;-68
2021/07/24 00:26:58;;;;;;;17.27;16.27;;;18.20;99.90;;;;;;5081600;28;20843;-68
2021/07/24 00:29:26;;;;;;;17.73;16.80;;;18.10;99.90;;;;;;5084532;28;20458;-70
2021/07/24 00:31:52;;;;;;;16.63;15.70;;;18.10;99.90;;;;;;5086121;28;20458;-67
2021/07/24 00:34:19;;;;;;;19.47;17.90;;;18.00;99.90;;;;;;5082556;28;20478;-69
2021/07/24 00:36:46;;;;;;;17.30;16.30;;;18.00;99.90;;;;;;5081296;28;20482;-69
2021/07/24 00:39:12;;;;;;;16.23;15.20;;;17.90;99.90;;;;;;5082697;28;20455;-68
2021/07/24 00:41:43;;;;;;;17.40;15.97;;;17.80;99.90;;;;;;5088139;28;20455;-69
2021/07/24 00:44:14;;;;;;;17.40;16.50;;;17.80;99.90;;;;;;5082271;28;20440;-68
2021/07/24 00:46:44;;;;;;;17.73;16.70;;;17.70;99.90;;;;;;5084758;28;20473;-68
2021/07/24 00:49:11;;;;;;;17.23;16.10;;;17.70;99.90;;;;;;5083825;28;20451;-69
2021/07/24 00:51:44;;;;;;;17.33;16.03;;;17.70;99.90;;;;;;5081013;28;20453;-68
2021/07/24 00:54:10;;;;;;;17.17;16.27;;;17.60;99.90;;;;;;5081607;28;20507;-69
2021/07/24 00:56:39;;;;;;;17.70;16.70;;;17.60;99.90;;;;;;5081347;28;20466;-68
2021/07/24 00:59:06;;;;;;;18.17;16.57;;;17.50;99.90;;;;;;5081302;28;20447;-69
2021/07/24 01:01:33;;;;;;;16.63;15.73;;;17.50;99.90;;;;;;5085431;28;20813;-69
2021/07/24 01:04:01;;;;;;;18.50;17.10;;;17.50;99.90;;;;;;5084609;28;20446;-69
2021/07/24 01:06:28;;;;;;;18.00;16.70;;;17.50;99.90;;;;;;5083427;28;20969;-68
2021/07/24 01:08:54;;;;;;;16.67;15.77;;;17.40;99.90;;;;;;5084393;28;20468;-70
2021/07/24 01:11:21;;;;;;;17.40;16.30;;;17.40;99.90;;;;;;5081723;28;20443;-68
2021/07/24 01:13:50;;;;;;;17.20;16.10;;;17.40;99.90;;;;;;5080462;28;20483;-68
2021/07/24 01:16:17;;;;;;;16.20;15.30;;;17.40;99.90;;;;;;5082335;28;20826;-69
2021/07/24 01:18:43;;;;;;;17.63;16.03;;;17.30;99.90;;;;;;5084217;28;20446;-69
2021/07/24 01:21:14;;;;;;;19.60;18.20;;;17.30;99.90;;;;;;5082823;28;20450;-68
2021/07/24 01:23:42;;;;;;;17.47;16.50;;;17.30;99.90;;;;;;5079575;28;20968;-69
2021/07/24 01:26:09;;;;;;;18.07;16.47;;;17.20;99.90;;;;;;5080983;28;20470;-69
2021/07/24 01:28:37;;;;;;;17.73;16.50;;;17.20;99.90;;;;;;5080632;28;20450;-68
2021/07/24 01:31:05;;;;;;;17.80;16.70;;;17.20;99.90;;;;;;5081927;28;20454;-69
2021/07/24 01:33:34;;;;;;;19.40;18.00;;;17.20;99.90;;;;;;5075504;28;20439;-69
2021/07/24 01:36:00;;;;;;;17.83;16.63;;;17.10;99.90;;;;;;5083376;28;20470;-69
2021/07/24 01:38:29;;;;;;;17.53;16.60;;;17.10;99.90;;;;;;5083224;28;20529;-69
2021/07/24 01:40:57;;;;;;;18.50;17.30;;;17.10;99.90;;;;;;5083535;28;20809;-69
2021/07/24 01:43:24;;;;;;;17.67;16.57;;;17.10;99.90;;;;;;5080697;28;20438;-70
2021/07/24 01:45:50;;;;;;;18.00;16.90;;;17.10;99.90;;;;;;5080218;28;20811;-69
2021/07/24 01:48:23;;;;;;;18.20;16.80;;;17.00;99.90;;;;;;5081763;28;20964;-69
2021/07/24 01:53:34;;;;;;;17.00;15.90;;;17.00;99.90;;;;;;5073198;28;20496;-68
2021/07/24 01:56:04;;;;;;;16.20;15.30;;;16.90;99.90;;;;;;5079835;28;20467;-70
2021/07/24 01:58:33;;;;;;;17.97;16.87;;;16.90;99.90;;;;;;5072385;28;20440;-69
2021/07/24 02:01:02;;;;;;;18.30;16.97;;;16.80;99.90;;;;;;5080892;28;20444;-68
2021/07/24 02:03:36;;;;;;;18.10;17.00;;;16.90;99.90;;;;;;5082848;28;20969;-68
2021/07/24 02:06:04;;;;;;;17.70;16.60;;;16.80;99.90;;;;;;5083111;28;20515;-69
2021/07/24 02:08:33;;;;;;;18.80;17.20;;;16.80;99.90;;;;;;5075443;28;20435;-69
2021/07/24 02:11:01;;;;;;;16.70;15.80;;;16.80;99.90;;;;;;5083160;28;20452;-70
2021/07/24 02:13:29;;;;;;;18.63;17.43;;;16.70;99.90;;;;;;5082700;28;20544;-69
2021/07/24 02:15:57;;;;;;;17.53;16.37;;;16.70;99.90;;;;;;5083194;28;20515;-69
2021/07/24 02:18:24;;;;;;;18.17;17.00;;;16.70;99.90;;;;;;5080078;28;20496;-69
2021/07/24 02:20:52;;;;;;;18.20;16.90;;;16.70;99.90;;;;;;5079625;28;20458;-69
2021/07/24 02:23:19;;;;;;;18.23;17.13;;;16.60;99.90;;;;;;5081635;28;20505;-68
2021/07/24 02:25:46;;;;;;;18.13;17.00;;;16.60;99.90;;;;;;5082936;28;20947;-68
2021/07/24 02:28:13;;;;;;;18.63;17.07;;;16.60;99.90;;;;;;5074774;28;20454;-69
2021/07/24 02:30:41;;;;;;;16.60;15.60;;;16.60;99.90;;;;;;5081614;28;20434;-68
2021/07/24 02:33:08;;;;;;;16.40;15.40;;;16.60;99.90;;;;;;5081863;28;20458;-69
2021/07/24 02:35:35;;;;;;;17.97;16.77;;;16.60;99.90;;;;;;5078761;28;20474;-68
2021/07/24 02:38:02;;;;;;;18.73;17.40;;;16.50;99.90;;;;;;5079425;28;20448;-70
2021/07/24 02:40:29;;;;;;;16.20;15.30;;;16.50;99.90;;;;;;5082713;28;20442;-70
2021/07/24 02:42:55;;;;;;;20.17;18.20;;;16.50;99.90;;;;;;5082716;28;20446;-69
2021/07/24 02:45:22;;;;;;;17.77;16.67;;;16.50;99.90;;;;;;5079856;28;20486;-69
2021/07/24 02:47:51;;;;;;;18.63;17.33;;;16.50;99.90;;;;;;5079501;28;20454;-69
2021/07/24 02:50:18;;;;;;;18.57;17.23;;;16.50;99.90;;;;;;5080854;28;20443;-67
2021/07/24 02:52:44;;;;;;;17.77;16.53;;;16.50;99.90;;;;;;5082663;28;20453;-66
2021/07/24 02:55:12;;;;;;;17.17;16.10;;;16.50;99.90;;;;;;5081223;28;20887;-69
2021/07/24 02:57:38;;;;;;;17.80;16.70;;;16.50;99.90;;;;;;5079216;28;20950;-67
2021/07/24 03:00:06;;;;;;;18.73;16.80;;;16.50;99.90;;;;;;5079447;28;20443;-67
2021/07/24 03:02:33;;;;;;;17.47;16.37;;;16.50;99.90;;;;;;5079501;28;20526;-66
2021/07/24 03:05:01;;;;;;;19.47;17.30;;;16.40;99.90;;;;;;5085612;28;20482;-63
2021/07/24 03:07:28;;;;;;;18.50;16.90;;;16.40;99.90;;;;;;5082071;28;20466;-63
2021/07/24 03:09:54;;;;;;;18.87;17.20;;;16.40;99.90;;;;;;5082504;28;20438;-63
2021/07/24 03:12:21;;;;;;;17.87;16.77;;;16.40;99.90;;;;;;5079772;28;20458;-63
2021/07/24 03:14:48;;;;;;;16.30;15.30;;;16.40;99.90;;;;;;5079129;28;20448;-63
2021/07/24 03:17:14;;;;;;;16.97;15.70;;;16.50;99.90;;;;;;5080153;28;20473;-63
2021/07/24 03:19:41;;;;;;;16.13;15.03;;;16.50;99.90;;;;;;5082432;28;20949;-63
2021/07/24 03:22:09;;;;;;;18.90;17.57;;;16.50;99.90;;;;;;5081418;28;20822;-63
2021/07/24 03:24:36;;;;;;;18.27;16.83;;;16.50;99.90;;;;;;5078846;28;21027;-63
2021/07/24 03:27:03;;;;;;;16.80;15.67;;;16.50;99.90;;;;;;5078659;28;20471;-63
2021/07/24 03:29:30;;;;;;;19.03;17.30;;;16.50;99.90;;;;;;5071457;28;20525;-63
2021/07/24 03:31:57;;;;;;;17.33;16.30;;;16.60;99.90;;;;;;5083658;28;20446;-64
2021/07/24 03:34:23;;;;;;;17.63;16.33;;;16.60;99.90;;;;;;5079309;28;20960;-63
2021/07/24 03:36:50;;;;;;;16.53;15.43;;;16.60;99.90;;;;;;5078671;28;20475;-63
2021/07/24 03:39:18;;;;;;;18.37;17.10;;;16.70;99.90;;;;;;5080334;28;20443;-63
2021/07/24 03:41:45;;;;;;;18.93;17.43;;;16.80;99.90;;;;;;5082233;28;20975;-63
2021/07/24 03:44:12;;;;;;;17.63;16.43;;;16.90;99.90;;;;;;5080768;28;20953;-64
2021/07/24 03:46:38;;;;;;;18.10;16.80;;;16.90;99.90;;;;;;5080951;28;20490;-63
2021/07/24 03:49:05;;;;;;;19.33;18.03;;;17.00;99.90;;;;;;5082480;28;20474;-63
2021/07/24 03:51:32;;;;;;;17.43;16.33;;;17.20;99.90;;;;;;5085720;28;20442;-63
2021/07/24 03:53:59;;;;;;;17.30;16.20;;;17.20;99.90;;;;;;5085829;28;20453;-62
2021/07/24 03:56:27;;;;;;;17.23;16.23;;;17.30;99.90;;;;;;5082349;28;20505;-63
2021/07/24 03:58:54;;;;;;;17.67;16.47;;;17.40;99.90;;;;;;5082205;28;20454;-62
2021/07/24 04:01:24;;;;;;;24.87;23.03;;;17.60;99.90;;;;;;5085440;28;20549;-63
2021/07/24 04:03:52;;;;;;;21.40;19.70;;;17.60;99.90;;;;;;5085600;28;20450;-63
2021/07/24 04:06:22;;;;;;;18.63;17.53;;;17.70;99.90;;;;;;5083321;28;20477;-63
2021/07/24 04:08:49;;;;;;;20.40;19.10;;;17.70;99.90;;;;;;5082170;28;20479;-62
2021/07/24 04:11:16;;;;;;;19.40;18.10;;;17.80;99.90;;;;;;5083436;28;20447;-63
2021/07/24 04:13:44;;;;;;;19.60;18.30;;;17.80;99.90;;;;;;5081019;28;20818;-63
2021/07/24 04:16:12;;;;;;;19.10;17.80;;;17.90;99.90;;;;;;5082000;28;20994;-62
2021/07/24 04:18:39;;;;;;;18.67;17.57;;;18.00;99.90;;;;;;5072637;28;20444;-62
2021/07/24 04:21:09;;;;;;;21.10;19.80;;;18.10;99.90;;;;;;5076737;28;20826;-62
2021/07/24 04:23:36;;;;;;;19.10;17.80;;;18.10;99.90;;;;;;5084183;28;20458;-63
2021/07/24 04:26:03;;;;;;;19.97;18.70;;;18.10;99.90;;;;;;5084861;28;20992;-63
2021/07/24 04:28:30;;;;;;;20.57;19.27;;;18.10;99.90;;;;;;5081958;28;20965;-62
2021/07/24 04:30:59;;;;;;;18.53;17.43;;;18.30;99.90;;;;;;5084591;28;20786;-63
2021/07/24 04:33:26;;;;;;;19.70;18.40;;;18.40;99.90;;;;;;5084106;28;20438;-62
2021/07/24 04:35:53;;;;;;;19.57;18.47;;;18.50;99.90;;;;;;5084766;28;20474;-63
2021/07/24 04:38:19;;;;;;;19.30;18.10;;;18.50;99.90;;;;;;5083306;28;20446;-63
2021/07/24 04:40:47;;;;;;;20.40;19.07;;;18.50;99.90;;;;;;5085046;28;20457;-63
2021/07/24 04:43:16;;;;;;;19.90;18.70;;;18.50;99.90;;;;;;5083246;28;20450;-62
2021/07/24 04:45:44;;;;;;;21.30;19.53;;;18.70;99.90;;;;;;5079495;28;20996;-62
2021/07/24 04:48:12;;;;;;;21.83;20.53;;;18.70;99.90;;;;;;5083812;28;20956;-63
2021/07/24 04:50:53;;;;;;;19.57;18.30;;;18.80;99.90;;;;;;5086350;28;20454;-62
2021/07/24 04:53:21;;;;;;;21.10;19.63;;;18.80;99.90;;;;;;5079374;28;20782;-62
2021/07/24 04:55:48;;;;;;;19.57;18.50;;;18.80;99.90;;;;;;5076235;28;20462;-63
2021/07/24 04:58:16;;;;;;;21.13;19.77;;;18.90;99.90;;;;;;5074883;28;20451;-63
2021/07/24 05:00:46;;;;;;;20.90;19.70;;;19.00;99.90;;;;;;5073926;28;20500;-63
2021/07/24 05:03:18;;;;;;;20.83;19.50;;;19.00;99.90;;;;;;5078366;28;20443;-63
2021/07/24 05:05:46;;;;;;;21.97;20.57;;;19.10;99.90;;;;;;5081107;28;20479;-63
2021/07/24 05:08:14;;;;;;;21.23;19.83;;;19.20;99.90;;;;;;5081451;28;20447;-63
2021/07/24 05:10:41;;;;;;;21.80;20.20;;;19.20;99.90;;;;;;5079661;28;20458;-63
2021/07/24 05:13:08;;;;;;;21.83;20.23;;;19.40;99.90;;;;;;5081032;28;20457;-63
2021/07/24 05:15:37;;;;;;;20.80;19.50;;;19.40;99.90;;;;;;5079691;28;20458;-63
2021/07/24 05:18:04;;;;;;;21.10;19.57;;;19.50;99.90;;;;;;5085640;28;20455;-63
2021/07/24 05:20:32;;;;;;;20.90;19.70;;;19.70;99.90;;;;;;5087834;28;20481;-63
2021/07/24 05:22:59;;;;;;;21.70;20.30;;;19.80;99.90;;;;;;5082147;28;20918;-62
2021/07/24 05:25:26;;;;;;;23.23;21.53;;;19.90;99.90;;;;;;5085153;28;21021;-63
2021/07/24 05:27:53;;;;;;;21.57;20.07;;;20.00;99.90;;;;;;5086288;28;20439;-63
2021/07/24 05:30:20;;;;;;;21.30;19.97;;;20.10;99.90;;;;;;5073675;28;20444;-63
2021/07/24 05:32:47;;;;;;;21.70;20.27;;;20.20;99.90;;;;;;5087976;28;20435;-63
2021/07/24 05:35:14;;;;;;;21.33;20.07;;;20.40;99.90;;;;;;5089368;28;20434;-63
2021/07/24 05:37:42;;;;;;;22.67;20.93;;;20.50;99.90;;;;;;5075522;28;20444;-62
2021/07/24 05:40:10;;;;;;;22.70;21.20;;;20.70;99.90;;;;;;5086014;28;20450;-63
2021/07/24 05:42:37;;;;;;;22.30;20.80;;;20.90;99.90;;;;;;5072029;28;20455;-63
2021/07/24 05:45:05;;;;;;;20.70;19.30;;;21.10;99.90;;;;;;5086957;28;20440;-61
2021/07/24 05:47:32;;;;;;;21.43;19.93;;;21.30;99.90;;;;;;5087852;28;20492;-62
2021/07/24 05:49:59;;;;;;;21.40;20.00;;;21.50;99.90;;;;;;5072872;28;20431;-60
2021/07/24 05:52:26;;;;;;;21.30;20.00;;;21.50;99.90;;;;;;5086394;28;20832;-61
2021/07/24 05:54:54;;;;;;;21.57;20.37;;;21.50;99.90;;;;;;5074294;28;20436;-60
2021/07/24 05:57:21;;;;;;;22.57;21.17;;;21.60;99.90;;;;;;5085719;28;20541;-59
2021/07/24 05:59:48;;;;;;;22.60;21.20;;;21.70;99.90;;;;;;5088568;28;20438;-61
2021/07/24 06:02:16;;;;;;;22.90;21.30;;;21.80;99.90;;;;;;5074285;28;20450;-62
2021/07/24 06:04:43;;;;;;;24.03;22.43;;;21.80;99.90;;;;;;5073489;28;20438;-61
2021/07/24 06:07:12;;;;;;;23.73;22.27;;;21.90;99.90;;;;;;5080670;28;20482;-61
2021/07/24 06:09:40;;;;;;;22.87;21.47;;;22.00;99.90;;;;;;5078825;28;20444;-61
2021/07/24 06:12:10;;;;;;;23.27;21.67;;;22.10;99.90;;;;;;5079259;28;20439;-61
2021/07/24 06:14:37;;;;;;;24.40;22.87;;;22.20;99.90;;;;;;5068686;28;20447;-61
2021/07/24 06:17:04;;;;;;;23.90;22.40;;;22.20;99.90;;;;;;5070536;28;20467;-61
2021/07/24 06:19:31;;;;;;;24.30;22.80;;;22.30;99.90;;;;;;5071917;28;20443;-61
2021/07/24 06:21:59;;;;;;;23.17;21.77;;;22.50;99.90;;;;;;5086575;28;20937;-61
2021/07/24 06:24:26;;;;;;;24.47;22.93;;;22.80;99.90;;;;;;5074638;28;20439;-61
2021/07/24 06:26:52;;;;;;;23.73;22.23;;;22.90;99.90;;;;;;5073287;28;20490;-59
2021/07/24 06:29:20;;;;;;;22.83;21.53;;;23.10;99.90;;;;;;5084667;28;20445;-62
2021/07/24 06:31:47;;;;;;;24.30;22.63;;;23.20;99.90;;;;;;5079516;28;20470;-61
2021/07/24 06:34:14;;;;;;;22.40;21.10;;;23.30;99.90;;;;;;5075104;28;20807;-61
2021/07/24 06:36:41;;;;;;;23.63;21.90;;;23.50;99.90;;;;;;5071837;28;20470;-60
2021/07/24 06:39:07;;;;;;;25.03;23.43;;;23.60;99.90;;;;;;5087822;28;20449;-62
2021/07/24 06:41:34;;;;;;;25.20;23.60;;;23.70;99.90;;;;;;5070681;28;20455;-61
2021/07/24 06:44:02;;;;;;;24.20;22.70;;;23.80;99.90;;;;;;5083167;28;20933;-62
2021/07/24 06:46:30;;;;;;;25.97;24.17;;;23.90;99.90;;;;;;5076451;28;20486;-62
2021/07/24 06:48:57;;;;;;;25.90;24.30;;;24.00;99.90;;;;;;5075537;28;20447;-61
2021/07/24 06:51:23;;;;;;;24.03;22.47;;;24.10;99.90;;;;;;5073491;28;20449;-58
2021/07/24 06:53:50;;;;;;;26.03;24.23;;;24.20;99.90;;;;;;5086791;28;20454;-61
2021/07/24 06:56:17;;;;;;;24.10;22.50;;;24.20;99.90;;;;;;5080356;28;20455;-61
2021/07/24 06:58:43;;;;;;;23.90;22.43;;;24.30;99.90;;;;;;5086615;28;20544;-62
2021/07/24 07:01:10;;;;;;;24.20;22.80;;;24.20;99.90;;;;;;5083619;28;20816;-62
2021/07/24 07:03:38;;;;;;;25.43;23.97;;;24.40;99.90;;;;;;5087683;28;20469;-62
2021/07/24 07:06:06;;;;;;;27.60;25.57;;;24.60;99.90;;;;;;5076510;28;20483;-62
2021/07/24 07:08:33;;;;;;;26.27;24.53;;;24.70;99.60;;;;;;5074543;28;20497;-62
2021/07/24 07:11:03;;;;;;;26.13;24.40;;;24.90;99.30;;;;;;5075436;28;20868;-61
2021/07/24 07:13:30;;;;;;;24.43;22.93;;;25.00;98.60;;;;;;5079693;28;20441;-61
2021/07/24 07:15:57;;;;;;;24.63;23.07;;;25.00;98.30;;;;;;5081583;28;20467;-62
2021/07/24 07:18:24;;;;;;;23.70;22.30;;;25.20;98.30;;;;;;5082010;28;21092;-62
2021/07/24 07:20:52;;;;;;;24.73;23.00;;;25.20;98.10;;;;;;5079967;28;20447;-60
2021/07/24 07:23:19;;;;;;;24.17;22.67;;;25.30;98.20;;;;;;5084276;28;20957;-59
2021/07/24 07:25:46;;;;;;;24.20;22.67;;;25.50;98.30;;;;;;5082628;28;20512;-61
2021/07/24 07:28:13;;;;;;;24.47;23.07;;;25.60;97.90;;;;;;5083544;28;20446;-62
2021/07/24 07:30:39;;;;;;;27.13;24.90;;;25.60;97.50;;;;;;5085806;28;20446;-61
2021/07/24 07:33:06;;;;;;;24.97;23.07;;;25.60;97.50;;;;;;5083846;28;20451;-62
2021/07/24 07:35:33;;;;;;;22.70;21.37;;;25.60;97.70;;;;;;5082779;28;20477;-62
2021/07/24 07:38:01;;;;;;;24.43;22.93;;;25.70;98.00;;;;;;5083475;28;20440;-62
2021/07/24 07:40:27;;;;;;;24.37;22.77;;;25.90;97.40;;;;;;5089841;28;20435;-62
2021/07/24 07:42:54;;;;;;;24.17;22.67;;;25.90;98.70;;;;;;5085496;28;20450;-62
2021/07/24 07:45:21;;;;;;;22.73;21.13;;;26.00;97.40;;;;;;5083428;28;20450;-62
2021/07/24 07:47:47;;;;;;;22.33;21.07;;;26.10;96.90;;;;;;5082276;28;20921;-62
2021/07/24 07:50:14;;;;;;;23.07;21.77;;;26.20;96.60;;;;;;5083514;28;20474;-62
2021/07/24 07:52:41;;;;;;;23.87;22.37;;;26.40;96.30;;;;;;5085304;28;20446;-62
2021/07/24 07:55:10;;;;;;;23.60;22.30;;;26.40;94.90;;;;;;5085937;28;20446;-62
2021/07/24 07:57:39;;;;;;;22.63;21.40;;;26.40;94.60;;;;;;5088919;28;20806;-63
2021/07/24 08:00:07;;;;;;;23.70;22.20;;;26.70;93.90;;;;;;5085234;28;20474;-62
2021/07/24 08:02:34;;;;;;;23.77;21.87;;;26.80;92.70;;;;;;5082638;28;20443;-62
2021/07/24 08:05:01;;;;;;;22.03;20.93;;;27.00;92.20;;;;;;5074722;28;20439;-60
2021/07/24 08:07:27;;;;;;;22.67;21.47;;;27.20;91.70;;;;;;5084390;28;20483;-62
2021/07/24 08:09:56;;;;;;;23.30;21.90;;;27.20;90.50;;;;;;5085756;28;20488;-62
2021/07/24 08:12:24;;;;;;;23.90;22.50;;;27.40;90.00;;;;;;5080661;28;20566;-66
2021/07/24 08:14:51;;;;;;;24.30;22.90;;;27.60;89.70;;;;;;5077192;28;20954;-67
2021/07/24 08:17:18;;;;;;;23.60;22.30;;;27.60;88.60;;;;;;5079480;28;20463;-66
2021/07/24 08:19:45;;;;;;;24.47;23.17;;;27.70;89.00;;;;;;5094365;28;20442;-67
2021/07/24 08:22:12;;;;;;;27.23;25.37;;;27.80;89.40;;;;;;5094120;28;20446;-66
2021/07/24 08:24:38;;;;;;;25.13;23.67;;;27.80;88.90;;;;;;5094104;28;20446;-67
2021/07/24 08:27:05;;;;;;;23.50;22.20;;;27.90;90.10;;;;;;5093593;28;20482;-66
2021/07/24 08:29:33;;;;;;;24.70;23.20;;;27.90;89.40;;;;;;5093928;28;20446;-67
2021/07/24 08:32:00;;;;;;;23.60;22.40;;;28.10;90.00;;;;;;5093697;28;20445;-66
2021/07/24 08:34:26;;;;;;;23.93;22.50;;;27.80;90.40;;;;;;5093824;28;20450;-66
2021/07/24 08:36:53;;;;;;;23.13;21.90;;;27.80;90.00;;;;;;5094089;28;20841;-67
2021/07/24 08:39:20;;;;;;;23.90;22.37;;;27.90;90.10;;;;;;5093607;28;20460;-67
2021/07/24 08:41:46;;;;;;;25.50;23.90;;;27.90;89.70;;;;;;5093447;28;20758;-66
2021/07/24 08:44:13;;;;;;;24.60;23.13;;;28.00;89.40;;;;;;5093577;28;20443;-67
2021/07/24 08:46:41;;;;;;;24.00;22.60;;;28.00;89.80;;;;;;5093465;28;20485;-66
2021/07/24 08:49:08;;;;;;;26.00;24.50;;;27.90;89.60;;;;;;5093603;28;20442;-67
2021/07/24 08:51:37;;;;;;;24.60;23.30;;;28.00;88.70;;;;;;5093357;28;20788;-67
2021/07/24 08:54:05;;;;;;;24.27;22.70;;;27.80;89.00;;;;;;5093371;28;20450;-67
2021/07/24 08:56:36;;;;;;;24.30;22.67;;;27.80;88.30;;;;;;5093156;28;20455;-67
2021/07/24 08:59:03;;;;;;;24.80;23.50;;;27.80;86.80;;;;;;5093678;28;21004;-66
2021/07/24 09:01:34;;;;;;;24.73;23.20;;;27.80;86.90;;;;;;5093024;28;20461;-66
2021/07/24 09:04:05;;;;;;;23.70;22.43;;;27.50;87.90;;;;;;5093242;28;20447;-67
2021/07/24 09:06:32;;;;;;;24.50;23.10;;;27.20;89.10;;;;;;5093070;28;20567;-66
2021/07/24 09:08:58;;;;;;;25.00;23.50;;;27.10;90.90;;;;;;5093074;28;20438;-66
2021/07/24 09:11:26;;;;;;;24.20;22.90;;;26.70;92.30;;;;;;5092902;28;20442;-67
2021/07/24 09:13:52;;;;;;;25.03;23.33;;;26.60;92.20;;;;;;5092972;28;20465;-67
2021/07/24 09:16:19;;;;;;;25.33;23.73;;;26.40;92.40;;;;;;5092875;28;20823;-66
2021/07/24 09:18:49;;;;;;;25.70;24.07;;;26.40;92.10;;;;;;5093005;28;20458;-67
2021/07/24 09:21:19;;;;;;;25.33;23.90;;;26.30;92.60;;;;;;5092762;28;20481;-66
2021/07/24 09:23:47;;;;;;;25.00;23.50;;;26.10;92.90;;;;;;5092821;28;20481;-66
2021/07/24 09:26:31;;;;;;;24.43;23.00;;;26.00;93.70;;;;;;5092610;28;20470;-67
2021/07/24 09:29:10;;;;;;;25.23;23.60;;;25.90;93.80;;;;;;5092676;28;20451;-67
2021/07/24 09:31:38;;;;;;;25.37;23.87;;;25.70;94.40;;;;;;5092705;28;20851;-66
2021/07/24 09:34:05;;;;;;;26.30;24.67;;;25.50;94.90;;;;;;5092728;28;20449;-67
2021/07/24 09:36:33;;;;;;;24.43;23.00;;;25.50;95.00;;;;;;5092465;28;20466;-66
2021/07/24 09:39:11;;;;;;;24.87;23.37;;;25.50;94.90;;;;;;5092479;28;20447;-66
2021/07/24 09:41:38;;;;;;;24.60;23.17;;;25.60;94.90;;;;;;5092421;28;20482;-66
2021/07/24 09:44:05;;;;;;;24.50;22.70;;;25.70;95.10;;;;;;5092013;28;20809;-66
2021/07/24 09:46:32;;;;;;;24.03;22.73;;;25.90;95.20;;;;;;5092337;28;20485;-66
2021/07/24 09:49:11;;;;;;;24.43;22.93;;;26.10;95.10;;;;;;5092405;28;20499;-66
2021/07/24 09:51:40;;;;;;;23.40;21.90;;;26.50;94.00;;;;;;5092188;28;20450;-67
2021/07/24 09:54:24;;;;;;;24.80;23.20;;;26.80;93.20;;;;;;5092508;28;20955;-67
2021/07/24 09:56:51;;;;;;;26.87;25.27;;;27.20;91.70;;;;;;5092236;28;21007;-66
2021/07/24 09:59:19;;;;;;;27.47;25.67;;;27.60;91.10;;;;;;5092311;28;20528;-67
2021/07/24 10:01:54;;;;;;;26.73;22.70;;;27.80;89.90;;;;;;5092019;28;20470;-67
2021/07/24 10:04:28;;;;;;;25.20;23.70;;;27.90;89.40;;;;;;5092304;28;20499;-66
2021/07/24 10:06:58;;;;;;;26.30;24.47;;;28.00;87.70;;;;;;5092061;28;20584;-66
2021/07/24 10:09:29;;;;;;;26.90;25.00;;;27.90;87.10;;;;;;5092109;28;20446;-67
2021/07/24 10:11:56;;;;;;;23.93;22.50;;;27.90;87.10;;;;;;5091815;28;20519;-67
2021/07/24 10:14:23;;;;;;;25.17;23.57;;;27.80;87.80;;;;;;5092030;28;20439;-67
2021/07/24 10:16:51;;;;;;;25.43;23.87;;;27.80;88.90;;;;;;5091738;28;20466;-67
2021/07/24 10:19:19;;;;;;;26.57;24.97;;;27.60;87.80;;;;;;5091972;28;20442;-67
2021/07/24 10:21:46;;;;;;;26.03;24.40;;;27.60;88.30;;;;;;5091557;28;20477;-67
2021/07/24 10:24:14;;;;;;;24.10;22.73;;;27.50;88.60;;;;;;5091806;28;20446;-67
2021/07/24 10:26:48;;;;;;;24.47;23.13;;;27.50;90.00;;;;;;5091621;28;20478;-67
2021/07/24 10:29:19;;;;;;;27.60;25.80;;;27.30;90.10;;;;;;5091768;28;20470;-66
2021/07/24 10:31:52;;;;;;;25.03;23.40;;;27.10;90.70;;;;;;5091642;28;20496;-67
2021/07/24 10:34:24;;;;;;;26.50;24.80;;;27.00;91.20;;;;;;5091739;28;20446;-67
2021/07/24 10:36:51;;;;;;;26.47;24.57;;;26.80;90.80;;;;;;5091409;28;20462;-67
2021/07/24 10:39:23;;;;;;;25.73;23.53;;;26.60;91.70;;;;;;5091579;28;20445;-67
2021/07/24 10:41:51;;;;;;;26.30;24.67;;;26.50;91.80;;;;;;5091295;28;20449;-66
2021/07/24 10:44:33;;;;;;;26.93;25.37;;;26.20;92.20;;;;;;5091535;28;20483;-67
2021/07/24 10:47:18;;;;;;;26.57;24.60;;;26.00;93.00;;;;;;5091569;28;20473;-66
2021/07/24 10:50:02;;;;;;;26.00;24.23;;;25.80;93.10;;;;;;5091652;28;20449;-66
2021/07/24 10:53:14;;;;;;;26.00;24.00;;;25.70;94.00;;;;;;5091165;28;20502;-66
2021/07/24 10:55:47;;;;;;;26.87;25.17;;;25.50;94.40;;;;;;5092026;28;20472;-66
2021/07/24 10:58:18;;;;;;;24.80;23.37;;;25.40;94.70;;;;;;5095666;28;20438;-67
2021/07/24 11:00:52;;;;;;;25.97;24.47;;;25.40;95.20;;;;;;5083325;28;20475;-66
2021/07/24 11:03:42;;;;;;;24.33;22.83;;;25.30;95.00;;;;;;5068463;28;20443;-66
2021/07/24 11:06:26;;;;;;;24.87;23.37;;;25.20;95.60;;;;;;5079313;28;20476;-66
2021/07/24 11:09:15;;;;;;;26.20;24.60;;;25.20;95.60;;;;;;5085762;28;20470;-66
2021/07/24 11:12:04;;;;;;;26.63;24.13;;;25.10;96.50;;;;;;5076117;28;20479;-66
2021/07/24 11:14:58;;;;;;;25.77;24.03;;;25.20;96.20;;;;;;5088638;28;20463;-66
2021/07/24 11:17:25;;;;;;;24.63;23.13;;;25.30;96.40;;;;;;5070846;28;20477;-66
2021/07/24 11:20:34;;;;;;;24.27;22.63;;;25.30;96.40;;;;;;5082593;28;20809;-66
2021/07/24 11:23:20;;;;;;;24.87;23.20;;;25.50;96.60;;;;;;5073376;28;20442;-66
2021/07/24 11:25:47;;;;;;;27.47;25.43;;;25.70;96.00;;;;;;5078109;28;20467;-65
2021/07/24 11:28:23;;;;;;;25.23;23.63;;;25.90;95.60;;;;;;5080409;28;20487;-65
2021/07/24 11:31:02;;;;;;;24.63;23.13;;;26.00;95.30;;;;;;5081286;28;20454;-66
2021/07/24 11:33:30;;;;;;;25.93;24.17;;;26.10;94.50;;;;;;5085057;28;20457;-66
2021/07/24 11:36:03;;;;;;;25.90;24.20;;;26.20;94.50;;;;;;5082369;28;20566;-66
2021/07/24 11:38:30;;;;;;;24.57;22.97;;;26.30;93.90;;;;;;5089026;28;20468;-66
2021/07/24 11:41:08;;;;;;;24.63;23.23;;;26.60;93.70;;;;;;5087973;28;20461;-67
2021/07/24 11:43:37;;;;;;;26.50;24.77;;;26.90;93.20;;;;;;5073524;28;20438;-66
2021/07/24 11:46:10;;;;;;;27.10;24.93;;;27.10;92.40;;;;;;5085609;28;21049;-67
2021/07/24 11:48:40;;;;;;;24.90;23.30;;;27.40;91.90;;;;;;5081988;28;21033;-65
2021/07/24 11:51:09;;;;;;;26.30;24.53;;;27.30;90.80;;;;;;5085225;28;20990;-68
2021/07/24 11:53:36;;;;;;;28.10;26.30;;;27.30;91.50;;;;;;5082530;28;20613;-67
2021/07/24 11:56:07;;;;;;;26.00;24.43;;;27.40;89.60;;;;;;5082162;28;20470;-66
2021/07/24 11:58:35;;;;;;;27.30;25.27;;;27.30;90.10;;;;;;5075282;28;20453;-67
2021/07/24 12:01:03;;;;;;;27.80;25.77;;;27.00;90.50;;;;;;5085426;28;20455;-67
2021/07/24 12:03:31;;;;;;;26.43;24.60;;;26.80;90.50;;;;;;5085872;28;20453;-66
2021/07/24 12:06:09;;;;;;;27.60;25.17;;;26.80;90.80;;;;;;5085260;28;20473;-66
2021/07/24 12:08:37;;;;;;;27.43;25.83;;;26.60;91.10;;;;;;5076328;28;20479;-66
2021/07/24 12:11:04;;;;;;;26.90;24.90;;;26.70;91.60;;;;;;5075991;28;20603;-67
2021/07/24 12:13:31;;;;;;;25.83;24.03;;;26.60;92.20;;;;;;5069482;28;20816;-67
2021/07/24 12:16:01;;;;;;;25.87;24.17;;;26.40;92.40;;;;;;5081420;28;20541;-67
2021/07/24 12:18:35;;;;;;;24.57;22.97;;;26.30;92.50;;;;;;5082749;28;21002;-66
2021/07/24 12:21:09;;;;;;;26.87;25.00;;;26.20;93.80;;;;;;5079843;28;20450;-69
2021/07/24 12:23:42;;;;;;;26.47;24.77;;;25.90;93.50;;;;;;5088350;28;20802;-68
2021/07/24 12:26:11;;;;;;;28.20;26.30;;;25.70;94.50;;;;;;5083983;28;20478;-68
2021/07/24 12:28:38;;;;;;;25.83;24.17;;;25.70;95.30;;;;;;5087695;28;20477;-67
2021/07/24 12:31:28;;;;;;;27.10;25.00;;;25.60;95.70;;;;;;5088568;28;20446;-67
2021/07/24 12:33:56;;;;;;;26.97;25.10;;;25.50;95.60;;;;;;5076515;28;20803;-67
2021/07/24 12:36:24;;;;;;;28.10;26.20;;;25.40;95.60;;;;;;5087727;28;20491;-67
2021/07/24 12:38:52;;;;;;;27.87;25.87;;;25.30;96.00;;;;;;5079516;28;20486;-67